Time;durP1;ratioP1;P1;durP2;ratioP2;P2;SDS_P1;SDS_P2;PMS_P1;PMS_P2;Temp;Humidity;BMP_temperature;BMP_pressure;BME280_temperature;BME280_humidity;BME280_pressure;Samples;Min_cycle;Max_cycle;Signal;HPM_P1;HPM_P2
2024/01/27 11:08:55;;;;;;;10.80;4.37;;;;;;;3.53;100.00;103545.66;6054812;23;20850;31
2024/01/27 11:11:46;;;;;;;13.47;4.73;;;;;;;3.60;100.00;103544.25;5143610;23;20051;-92
2024/01/27 11:29:37;;;;;;;;;;;;;;;;;;;;;
2024/01/27 12:35:03;;;;;;;;;;;;;;;;;;;;;
2024/01/27 12:38:01;;;;;;;7.38;2.40;;;;;;;6.20;86.88;103507.63;4961496;28;20560;-92
2024/01/27 12:40:27;;;;;;;9.90;2.90;;;;;;;6.25;85.05;103498.31;4939044;28;20038;-92
2024/01/27 12:43:21;;;;;;;7.03;2.30;;;;;;;6.34;86.02;103492.59;4938036;29;20031;-95
2024/01/27 12:45:46;;;;;;;9.90;2.70;;;;;;;6.39;82.53;103501.41;4952430;29;20114;-92
2024/01/27 12:48:22;;;;;;;;;;;;;;;;;;;;;
2024/01/27 12:50:53;;;;;;;8.18;2.38;;;;;;;6.46;80.90;103495.63;4955238;28;21375;-93
2024/01/27 12:56:53;;;;;;;8.85;2.30;;;;;;;6.53;80.93;103492.41;4942716;28;20039;-92
2024/01/27 12:59:46;;;;;;;6.57;2.30;;;;;;;6.60;83.39;103490.91;4957915;28;20114;-92
2024/01/27 13:02:24;;;;;;;8.43;2.35;;;;;;;6.61;80.16;103487.50;4953390;28;20023;-92
2024/01/27 13:04:51;;;;;;;6.03;1.98;;;;;;;6.64;79.85;103494.50;4956455;28;20023;-93
2024/01/27 13:08:08;;;;;;;;;;;;;;;;;;;;;
2024/01/27 13:10:22;;;;;;;6.80;2.15;;;;;;;6.66;80.64;103482.50;4947558;28;20031;-95
2024/01/27 13:19:47;;;;;;;;;;;;;;;;;;;;;
2024/01/27 13:23:33;;;;;;;;;;;;;;;;;;;;;
2024/01/27 13:29:45;;;;;;;5.05;2.05;;;;;;;6.91;82.10;103452.22;4792505;29;20045;-91
2024/01/27 13:32:10;;;;;;;5.47;2.00;;;;;;;6.94;78.26;103452.31;4833691;29;20033;-91
2024/01/27 13:34:40;;;;;;;6.50;2.40;;;;;;;6.98;78.61;103443.84;4837251;29;20036;-95
2024/01/27 13:37:16;;;;;;;;;;;;;;;;;;;;;
2024/01/27 13:39:45;;;;;;;7.47;2.55;;;;;;;7.06;78.30;103447.53;4847135;29;20538;-93
2024/01/27 13:42:33;;;;;;;9.35;2.67;;;;;;;7.15;80.67;103436.56;4837545;29;21144;-96
2024/01/27 13:44:59;;;;;;;6.70;2.17;;;;;;;7.23;77.85;103442.00;4850926;29;20468;-94
2024/01/27 13:47:37;;;;;;;;;;;;;;;;;;;;;
2024/01/27 13:50:13;;;;;;;7.47;2.30;;;;;;;7.39;77.15;103451.09;4952071;29;20027;-93
2024/01/27 13:52:38;;;;;;;6.25;2.20;;;;;;;7.45;76.82;103456.44;4950852;28;20056;-93
2024/01/27 13:55:24;;;;;;;;;;;;;;;;;;;;;
2024/01/27 13:58:00;;;;;;;8.00;2.60;;;;;;;7.52;75.64;103454.91;4952504;29;20027;-94
2024/01/27 14:00:25;;;;;;;9.05;2.42;;;;;;;7.52;74.84;103453.22;4949587;28;20027;-92
2024/01/27 14:02:51;;;;;;;9.00;2.35;;;;;;;7.53;74.87;103443.72;4952695;28;20043;-92
2024/01/27 14:05:19;;;;;;;8.07;2.50;;;;;;;7.54;74.46;103450.66;4935354;28;20090;-94
2024/01/27 14:07:44;;;;;;;9.35;2.22;;;;;;;7.53;73.76;103448.91;4947546;28;20121;-93
2024/01/27 14:10:17;;;;;;;6.55;2.20;;;;;;;7.56;74.55;103456.78;4955722;28;20200;-94
2024/01/27 14:12:42;;;;;;;8.77;2.25;;;;;;;7.57;74.11;103455.94;4938117;29;20449;-94
2024/01/27 14:15:18;;;;;;;11.85;2.40;;;;;;;7.58;74.68;103462.88;4954334;29;20023;-93
2024/01/27 14:17:44;;;;;;;7.45;2.38;;;;;;;7.53;73.65;103454.09;4939210;29;20039;-92
2024/01/27 14:20:10;;;;;;;9.85;2.45;;;;;;;7.54;74.15;103461.03;4956737;29;20027;-94
2024/01/27 14:22:36;;;;;;;7.78;2.17;;;;;;;7.54;73.65;103455.84;4968345;28;20070;-94
2024/01/27 14:25:11;;;;;;;7.03;2.10;;;;;;;7.53;73.96;103456.69;4954295;29;20058;-94
2024/01/27 14:27:47;;;;;;;8.85;2.50;;;;;;;7.48;74.15;103456.53;4933569;29;20405;-94
2024/01/27 14:30:13;;;;;;;8.45;2.30;;;;;;;7.42;73.95;103462.44;4934769;29;20027;-93
2024/01/27 14:32:38;;;;;;;7.22;2.35;;;;;;;7.37;73.95;103456.22;4933239;29;20294;-95
2024/01/27 14:35:16;;;;;;;;;;;;;;;;;;;;;
2024/01/27 14:37:41;;;;;;;8.48;2.28;;;;;;;7.29;73.93;103449.94;4933726;29;20031;-91
2024/01/27 14:40:08;;;;;;;8.25;2.35;;;;;;;7.24;74.14;103451.50;4935403;29;20529;-94
2024/01/27 14:43:18;;;;;;;;;;;;;;;;;;;;;
2024/01/27 14:45:46;;;;;;;7.68;1.90;;;;;;;7.14;74.48;103455.53;4932541;29;20123;-94
2024/01/27 14:48:21;;;;;;;10.45;2.13;;;;;;;7.09;73.50;103457.09;4941721;29;20109;-93
2024/01/27 14:51:03;;;;;;;7.72;2.03;;;;;;;7.05;74.34;103448.34;4941286;29;20032;-96
2024/01/27 14:53:29;;;;;;;8.40;1.88;;;;;;;7.01;73.73;103446.50;4939706;29;20114;-94
2024/01/27 14:55:55;;;;;;;7.22;2.17;;;;;;;6.96;73.92;103441.19;4937886;29;20051;-92
2024/01/27 14:58:28;;;;;;;9.40;1.90;;;;;;;6.92;73.87;103444.50;4940262;29;20034;-94
2024/01/27 15:00:56;;;;;;;8.48;2.38;;;;;;;6.88;73.56;103436.59;4939816;29;20051;-96
2024/01/27 15:03:32;;;;;;;8.40;2.00;;;;;;;6.81;73.67;103436.41;4940946;29;20050;-94
2024/01/27 15:06:10;;;;;;;;;;;;;;;;;;;;;
2024/01/27 15:08:53;;;;;;;5.43;1.85;;;;;;;6.78;73.64;103446.66;4937872;29;20103;-94
2024/01/27 15:11:18;;;;;;;7.97;1.98;;;;;;;6.77;74.53;103444.91;4937568;29;20129;-94
2024/01/27 15:13:54;;;;;;;9.48;2.92;;;;;;;6.71;74.55;103447.28;4937823;29;20495;-94
2024/01/27 15:16:29;;;;;;;7.95;2.25;;;;;;;6.68;74.34;103442.00;4933716;29;20532;-96
2024/01/27 15:22:32;;;;;;;8.00;2.65;;;;;;;6.59;74.85;103437.41;4934454;29;20028;-91
2024/01/27 15:25:04;;;;;;;9.07;2.75;;;;;;;6.55;74.94;103438.16;4930666;29;20046;-93
2024/01/27 15:27:30;;;;;;;7.13;2.70;;;;;;;6.51;75.16;103437.16;4932405;29;20054;-93
2024/01/27 15:42:51;;;;;;;8.98;2.95;;;;;;;6.29;75.45;103451.06;5738503;23;20059;-91
2024/01/27 15:45:32;;;;;;;6.53;2.75;;;;;;;6.25;75.85;103448.34;4925114;29;20070;-93
2024/01/27 15:48:13;;;;;;;;;;;;;;;;;;;;;
2024/01/27 16:21:26;;;;;;;;;;;;;;;;;;;;;
2024/01/27 16:24:39;;;;;;;;;;;;;;;;;;;;;
2024/01/27 16:38:01;;;;;;;6.77;2.13;;;;;;;4.25;84.48;103419.25;5130132;23;20062;-92
2024/01/27 16:43:53;;;;;;;;;;;;;;;;;;;;;
2024/01/27 16:56:41;;;;;;;6.20;2.00;;;;;;;3.91;85.34;103411.78;4837723;29;20155;-95
2024/01/27 16:59:59;;;;;;;;;;;;;;;;;;;;;
2024/01/27 17:17:04;;;;;;;4.10;1.90;;;;;;;3.54;86.84;103425.56;5072030;23;20050;-96
2024/01/27 17:20:00;;;;;;;;;;;;;;;;;;;;;
2024/01/27 17:26:46;;;;;;;4.17;1.80;;;;;;;3.40;86.77;103424.94;4887722;29;20036;-95
2024/01/27 17:29:12;;;;;;;7.50;2.10;;;;;;;3.34;87.35;103425.53;4900281;29;20041;-90
2024/01/27 17:34:43;;;;;;;7.73;2.17;;;;;;;3.30;87.25;103415.91;4877094;29;20032;-93
2024/01/27 17:37:08;;;;;;;6.13;2.23;;;;;;;3.27;87.61;103411.50;4870064;29;20562;-91
2024/01/27 17:39:44;;;;;;;;;;;;;;;;;;;;;
2024/01/27 18:05:49;;;;;;;6.50;2.30;;;;;;;2.83;88.46;103433.41;5984042;23;20018;-95
2024/01/27 18:16:06;;;;;;;;;;;;;;;;;;;;;
2024/01/27 18:19:29;;;;;;;;;;;;;;;;;;;;;
2024/01/27 18:25:22;;;;;;;7.93;3.03;;;;;;;2.46;89.88;103429.94;4884143;29;20037;-92
2024/01/27 18:40:04;;;;;;;;;;;;;;;;;;;;;
2024/01/27 18:42:33;;;;;;;8.40;2.70;;;;;;;2.27;90.74;103440.97;5263884;23;20379;-92
2024/01/27 18:45:26;;;;;;;7.80;3.30;;;;;;;2.26;90.90;103444.34;4953620;29;20031;-93
2024/01/27 18:48:00;;;;;;;9.27;3.03;;;;;;;2.23;90.25;103445.06;4942417;29;20043;-96
2024/01/27 18:53:24;;;;;;;9.77;3.17;;;;;;;2.12;90.56;103434.25;5999012;23;20018;-96
2024/01/27 19:08:47;;;;;;;4.50;2.30;;;;;;;1.84;90.79;103449.00;5176685;23;20161;-93
2024/01/27 19:13:57;;;;;;;4.50;2.43;;;;;;;1.79;91.08;103441.09;5537471;23;20110;-95
2024/01/27 19:30:30;;;;;;;7.47;3.53;;;;;;;1.49;90.92;103416.44;5466570;23;20063;-90
2024/01/27 19:59:49;;;;;;;11.93;5.47;;;;;;;1.29;93.23;103392.28;5108640;23;20607;-92
2024/01/27 20:02:15;;;;;;;10.13;5.57;;;;;;;1.29;93.30;103392.28;4956071;28;21226;-90
2024/01/27 20:05:00;;;;;;;;;;;;;;;;;;;;;
2024/01/27 20:08:11;;;;;;;;;;;;;;;;;;;;;
2024/01/27 20:10:36;;;;;;;11.07;5.10;;;;;;;1.32;93.48;103394.13;4959096;28;20445;-89
2024/01/27 20:13:04;;;;;;;14.10;5.60;;;;;;;1.32;93.93;103391.56;4939513;29;20050;-92
2024/01/27 20:15:31;;;;;;;11.90;5.13;;;;;;;1.31;93.85;103385.56;4954650;29;20027;-93
2024/01/27 20:17:56;;;;;;;11.43;4.50;;;;;;;1.32;93.49;103381.28;4935584;29;20027;-91
2024/01/27 20:25:55;;;;;;;;;;;;;;;;;;;;;
2024/01/27 20:28:25;;;;;;;11.70;4.97;;;;;;;1.38;95.01;103385.88;4970849;28;20046;-93
2024/01/27 20:33:25;;;;;;;10.93;4.73;;;;;;;1.44;94.23;103370.81;4968878;28;20046;-90
2024/01/27 20:35:50;;;;;;;10.37;5.00;;;;;;;1.42;94.16;103372.41;4955097;28;20023;-91
2024/01/27 20:38:25;;;;;;;;;;;;;;;;;;;;;
2024/01/27 20:40:51;;;;;;;10.40;4.97;;;;;;;1.42;94.65;103378.44;4968344;28;20496;-91
2024/01/27 20:43:29;;;;;;;8.57;4.80;;;;;;;1.41;95.14;103381.81;4956907;29;20298;-94
2024/01/27 20:46:07;;;;;;;;;;;;;;;;;;;;;
2024/01/27 20:48:34;;;;;;;9.93;4.40;;;;;;;1.38;94.25;103368.81;4949992;29;20038;-91
2024/01/27 20:50:59;;;;;;;10.83;5.07;;;;;;;1.36;94.28;103368.75;4951756;29;20483;-92
2024/01/27 20:53:25;;;;;;;8.63;4.40;;;;;;;1.38;94.53;103370.47;4950907;29;20041;-91
2024/01/27 20:55:50;;;;;;;8.00;4.20;;;;;;;1.35;94.74;103368.63;4954010;29;20024;-92
2024/01/27 20:58:55;;;;;;;;;;;;;;;;;;;;;
2024/01/27 21:01:22;;;;;;;10.80;4.90;;;;;;;1.31;94.04;103372.72;4991800;23;20436;-91
2024/01/27 21:03:51;;;;;;;10.80;5.13;;;;;;;1.24;94.05;103368.06;4938673;29;20035;-93
2024/01/27 21:06:19;;;;;;;10.10;5.47;;;;;;;1.22;94.12;103356.84;4957029;29;20031;-94
2024/01/27 21:08:47;;;;;;;12.23;6.03;;;;;;;1.20;94.26;103356.75;4958963;29;20117;-94
2024/01/27 21:11:15;;;;;;;12.53;5.80;;;;;;;1.18;94.00;103355.78;4957784;28;20067;-95
2024/01/27 21:13:40;;;;;;;13.67;5.90;;;;;;;1.16;93.93;103352.25;4958717;28;20027;-93
2024/01/27 21:16:06;;;;;;;11.47;6.10;;;;;;;1.12;94.21;103347.75;4938554;29;20125;-94
2024/01/27 21:18:31;;;;;;;12.53;5.80;;;;;;;1.13;94.27;103353.78;4958120;29;20031;-94
2024/01/27 21:20:58;;;;;;;11.27;5.73;;;;;;;1.10;94.21;103359.66;4956155;28;20378;-91
2024/01/27 21:23:26;;;;;;;10.73;5.83;;;;;;;1.08;94.72;103360.34;4938835;29;20097;-92
2024/01/27 21:25:54;;;;;;;10.63;5.13;;;;;;;1.05;94.24;103356.81;4958491;29;20031;-96
2024/01/27 21:28:26;;;;;;;9.70;5.00;;;;;;;1.04;94.30;103357.59;4944270;29;20034;-95
2024/01/27 21:36:03;;;;;;;9.43;4.60;;;;;;;0.94;94.03;103347.66;4967711;23;20047;-91
2024/01/27 21:38:58;;;;;;;7.87;4.40;;;;;;;0.90;93.64;103343.16;4958484;29;20027;-95
2024/01/27 21:42:13;;;;;;;;;;;;;;;;;;;;;
2024/01/27 21:44:38;;;;;;;13.83;5.73;;;;;;;0.78;93.76;103333.09;4860514;29;20042;-91
2024/01/27 21:50:23;;;;;;;11.67;5.73;;;;;;;0.69;94.34;103327.50;4812645;29;20412;-92
2024/01/27 21:52:58;;;;;;;11.87;6.30;;;;;;;0.67;94.78;103329.97;4861364;29;20033;-92
2024/01/27 21:55:26;;;;;;;9.60;5.37;;;;;;;0.67;94.43;103337.66;4884741;29;20540;-92
2024/01/27 21:58:03;;;;;;;12.03;5.57;;;;;;;0.65;94.85;103341.81;4936672;29;20431;-93
2024/01/27 22:00:39;;;;;;;10.30;5.07;;;;;;;0.64;94.86;103334.91;4930166;29;20432;-95
2024/01/27 22:03:18;;;;;;;10.57;5.60;;;;;;;0.63;94.49;103334.81;4954635;29;20027;-96
2024/01/27 22:05:43;;;;;;;10.83;4.93;;;;;;;0.58;94.46;103332.00;4949853;29;20110;-92
2024/01/27 22:08:12;;;;;;;8.90;5.00;;;;;;;0.57;94.48;103333.69;4947916;29;20107;-94
2024/01/27 22:10:44;;;;;;;9.67;4.93;;;;;;;0.55;94.85;103332.72;4947300;29;20405;-93
2024/01/27 22:13:12;;;;;;;9.27;4.70;;;;;;;0.55;95.34;103332.72;4946114;29;20076;-95
2024/01/27 22:15:39;;;;;;;9.43;4.93;;;;;;;0.53;95.08;103328.28;4946437;29;20075;-94
2024/01/27 22:18:14;;;;;;;11.30;5.70;;;;;;;0.53;95.09;103323.16;4931296;29;20031;-91
2024/01/27 22:20:48;;;;;;;10.80;5.50;;;;;;;0.50;94.82;103323.03;4940752;29;20652;-95
2024/01/27 22:23:21;;;;;;;10.80;5.23;;;;;;;0.49;94.77;103324.69;4946371;29;20058;-95
2024/01/27 22:26:05;;;;;;;;;;;;;;;;;;;;;
2024/01/27 22:28:30;;;;;;;10.27;4.97;;;;;;;0.45;94.15;103321.09;4948568;28;20032;-91
2024/01/27 22:30:56;;;;;;;10.20;5.80;;;;;;;0.39;94.70;103313.03;4948676;29;20102;-92
2024/01/27 22:33:23;;;;;;;12.77;5.70;;;;;;;0.36;94.80;103306.88;4925029;29;20032;-92
2024/01/27 22:36:01;;;;;;;8.73;5.27;;;;;;;0.33;94.98;103299.91;4920740;29;20015;-94
2024/01/27 22:38:26;;;;;;;11.33;5.57;;;;;;;0.29;94.84;103305.66;4948764;29;20019;-94
2024/01/27 22:41:22;;;;;;;10.40;5.63;;;;;;;0.25;94.82;103296.91;4936596;29;20524;-96
2024/01/27 22:44:23;;;;;;;9.10;5.27;;;;;;;0.25;95.00;103290.91;4931049;29;20054;-96
2024/01/27 22:46:58;;;;;;;8.60;4.87;;;;;;;0.21;94.61;103278.72;4953475;29;20051;-96
2024/01/27 22:49:24;;;;;;;10.43;5.47;;;;;;;0.22;94.64;103290.72;4953160;29;20610;-95
2024/01/27 22:51:51;;;;;;;12.70;5.80;;;;;;;0.19;94.54;103291.44;4948433;29;20038;-92
2024/01/27 22:54:27;;;;;;;;;;;;;;;;;;;;;
2024/01/27 22:56:53;;;;;;;10.00;5.60;;;;;;;0.13;94.82;103285.97;4956622;28;20114;-93
2024/01/27 22:59:19;;;;;;;8.80;4.93;;;;;;;0.10;94.76;103281.56;4932200;29;20125;-94
2024/01/27 23:01:44;;;;;;;9.40;5.10;;;;;;;0.11;94.64;103278.22;4947893;29;20519;-93
2024/01/27 23:18:19;;;;;;;11.33;5.10;;;;;;;0.05;95.04;103252.25;4949986;28;20804;-93
2024/01/27 23:20:48;;;;;;;9.97;5.10;;;;;;;0.04;94.99;103255.59;4958519;28;20032;-93
2024/01/27 23:23:18;;;;;;;9.43;4.80;;;;;;;0.02;95.38;103248.66;4961329;28;20122;-93
2024/01/27 23:26:03;;;;;;;8.73;4.50;;;;;;;0.03;95.68;103252.97;4947088;28;20392;-95
2024/01/27 23:28:50;;;;;;;7.90;4.40;;;;;;;0.02;95.29;103246.09;4958730;28;20062;-93
2024/01/27 23:41:14;;;;;;;7.27;4.10;;;;;;;0.02;96.28;103238.41;4790147;29;20045;-92
2024/01/27 23:43:49;;;;;;;8.53;4.53;;;;;;;0.03;96.02;103242.72;4802881;29;20070;-94
2024/01/27 23:47:37;;;;;;;;;;;;;;;;;;;;;
2024/01/27 23:50:34;;;;;;;;;;;;;;;;;;;;;
2024/01/27 23:56:37;;;;;;;;;;;;;;;;;;;;;
2024/01/27 23:59:35;;;;;;;7.20;3.73;;;;;;;0.03;96.67;103212.88;4748340;30;20048;-95
